createdAt,value
2023-05-13T00:01:51.217Z,89.46
2023-05-13T00:04:17.604Z,89.25
2023-05-13T00:06:43.973Z,89.27
2023-05-13T00:09:10.349Z,88.29
2023-05-13T00:11:36.704Z,88.74
2023-05-13T00:14:03.086Z,88.63
2023-05-13T00:16:29.488Z,88.51
2023-05-13T00:18:56.027Z,88.27
2023-05-13T00:21:22.591Z,88.48
2023-05-13T00:23:48.997Z,88.72
2023-05-13T00:26:15.389Z,89.51
2023-05-13T00:28:41.755Z,90.14
2023-05-13T00:31:08.220Z,91.80
2023-05-13T00:33:34.587Z,92.46
2023-05-13T00:36:00.962Z,92.54
2023-05-13T00:38:27.363Z,92.99
2023-05-13T00:40:53.722Z,93.63
2023-05-13T00:43:20.116Z,94.20
2023-05-13T00:45:46.523Z,94.89
2023-05-13T00:48:12.933Z,96.18
2023-05-13T00:50:39.284Z,96.05
2023-05-13T00:53:05.669Z,96.90
2023-05-13T00:55:32.044Z,96.13
2023-05-13T00:57:58.385Z,96.54
2023-05-13T01:00:24.780Z,96.00
2023-05-13T01:02:51.271Z,96.46
2023-05-13T01:05:17.711Z,96.40
2023-05-13T01:07:44.071Z,96.07
2023-05-13T01:10:10.465Z,96.14
2023-05-13T01:12:36.843Z,95.56
2023-05-13T01:15:03.199Z,95.59
2023-05-13T01:17:29.614Z,96.11
2023-05-13T01:19:56.005Z,96.33
2023-05-13T01:22:22.366Z,96.19
2023-05-13T01:24:48.741Z,96.46
2023-05-13T01:27:15.141Z,96.42
2023-05-13T01:29:41.531Z,96.66
2023-05-13T01:32:07.908Z,96.73
2023-05-13T01:34:34.293Z,97.52
2023-05-13T01:37:00.686Z,98.34
2023-05-13T01:39:27.062Z,98.36
2023-05-13T01:41:53.446Z,98.07
2023-05-13T01:44:19.840Z,98.07
2023-05-13T01:46:46.250Z,98.23
2023-05-13T01:49:12.643Z,98.13
2023-05-13T01:51:39.018Z,98.15
2023-05-13T01:54:05.372Z,99.43
2023-05-13T01:56:31.721Z,98.90
2023-05-13T01:58:58.118Z,98.27
2023-05-13T02:01:24.505Z,98.03
2023-05-13T02:03:50.956Z,99.29
2023-05-13T02:06:17.356Z,99.36
2023-05-13T02:08:43.734Z,100.00
2023-05-13T02:11:10.100Z,100.00
2023-05-13T02:13:36.445Z,100.00
2023-05-13T02:16:03.960Z,100.00
2023-05-13T02:18:30.327Z,100.00
2023-05-13T02:20:56.741Z,100.00
2023-05-13T02:23:23.080Z,100.00
2023-05-13T02:25:49.423Z,100.00
2023-05-13T02:28:15.806Z,100.00
2023-05-13T02:30:42.155Z,100.00
2023-05-13T02:33:08.535Z,100.00
2023-05-13T02:35:34.907Z,100.00
2023-05-13T02:38:01.317Z,100.00
2023-05-13T02:40:27.725Z,100.00
2023-05-13T02:42:54.114Z,100.00
2023-05-13T02:45:20.473Z,100.00
2023-05-13T02:47:46.854Z,100.00
2023-05-13T02:50:13.220Z,100.00
2023-05-13T02:52:39.563Z,100.00
2023-05-13T02:55:06.030Z,100.00
2023-05-13T02:57:32.451Z,100.00
2023-05-13T02:59:58.846Z,100.00
2023-05-13T03:02:25.262Z,100.00
2023-05-13T03:04:51.649Z,100.00
2023-05-13T03:07:17.986Z,100.00
2023-05-13T03:09:44.375Z,100.00
2023-05-13T03:12:10.769Z,100.00
2023-05-13T03:14:37.165Z,100.00
2023-05-13T03:17:03.518Z,100.00
2023-05-13T03:19:29.860Z,100.00
2023-05-13T03:21:56.205Z,100.00
2023-05-13T03:24:22.604Z,100.00
2023-05-13T03:26:49.003Z,100.00
2023-05-13T03:29:15.409Z,100.00
2023-05-13T03:31:41.841Z,100.00
2023-05-13T03:34:08.228Z,100.00
2023-05-13T03:36:34.608Z,100.00
2023-05-13T03:39:01.010Z,100.00
2023-05-13T03:41:27.397Z,100.00
2023-05-13T03:43:53.746Z,100.00
2023-05-13T03:46:20.115Z,100.00
2023-05-13T03:48:46.542Z,100.00
2023-05-13T03:51:12.918Z,100.00
2023-05-13T03:53:39.289Z,100.00
2023-05-13T03:56:05.655Z,100.00
2023-05-13T03:58:32.002Z,100.00
2023-05-13T04:00:58.380Z,100.00
2023-05-13T04:03:24.807Z,100.00
2023-05-13T04:05:51.265Z,100.00
2023-05-13T04:08:17.642Z,100.00
2023-05-13T04:10:44.018Z,100.00
2023-05-13T04:13:10.406Z,100.00
2023-05-13T04:15:36.764Z,100.00
2023-05-13T04:18:03.159Z,100.00
2023-05-13T04:20:29.514Z,100.00
2023-05-13T04:22:55.909Z,100.00
2023-05-13T04:25:22.295Z,100.00
2023-05-13T04:27:48.689Z,100.00
2023-05-13T04:30:15.043Z,100.00
2023-05-13T04:32:41.433Z,100.00
2023-05-13T04:35:07.826Z,100.00
2023-05-13T04:37:34.186Z,100.00
2023-05-13T04:40:00.564Z,100.00
2023-05-13T04:42:26.953Z,100.00
2023-05-13T04:44:53.319Z,100.00
2023-05-13T04:47:19.718Z,100.00
2023-05-13T04:49:46.167Z,100.00
2023-05-13T04:52:13.133Z,100.00
2023-05-13T04:54:39.516Z,100.00
2023-05-13T04:57:05.897Z,100.00
2023-05-13T04:59:32.254Z,100.00
2023-05-13T05:01:58.703Z,100.00
2023-05-13T05:04:25.125Z,100.00
2023-05-13T05:06:51.591Z,100.00
2023-05-13T05:09:17.980Z,100.00
2023-05-13T05:11:44.342Z,100.00
2023-05-13T05:14:10.736Z,100.00
2023-05-13T05:16:37.148Z,100.00
2023-05-13T05:19:03.579Z,100.00
2023-05-13T05:21:29.923Z,100.00
2023-05-13T05:23:56.304Z,100.00
2023-05-13T05:26:22.688Z,100.00
2023-05-13T05:28:49.041Z,100.00
2023-05-13T05:31:15.392Z,100.00
2023-05-13T05:33:41.739Z,100.00
2023-05-13T05:36:08.125Z,100.00
2023-05-13T05:38:34.480Z,100.00
2023-05-13T05:41:00.826Z,100.00
2023-05-13T05:43:27.208Z,100.00
2023-05-13T05:45:53.629Z,100.00
2023-05-13T05:48:20.093Z,100.00
2023-05-13T05:50:46.431Z,100.00
2023-05-13T05:53:12.811Z,100.00
2023-05-13T05:55:39.159Z,100.00
2023-05-13T05:58:05.571Z,100.00
2023-05-13T06:00:32.049Z,100.00
2023-05-13T06:02:58.484Z,100.00
2023-05-13T06:05:24.926Z,100.00
2023-05-13T06:07:51.305Z,99.91
2023-05-13T06:10:17.664Z,100.00
2023-05-13T06:12:44.052Z,99.83
2023-05-13T06:15:10.446Z,99.18
2023-05-13T06:17:36.826Z,98.88
2023-05-13T06:20:03.227Z,98.14
2023-05-13T06:22:29.608Z,98.50
2023-05-13T06:24:55.945Z,97.97
2023-05-13T06:27:22.335Z,98.69
2023-05-13T06:29:48.678Z,97.65
2023-05-13T06:32:15.025Z,96.71
2023-05-13T06:34:41.405Z,96.73
2023-05-13T06:37:07.748Z,96.18
2023-05-13T06:39:34.136Z,95.08
2023-05-13T06:42:00.528Z,94.38
2023-05-13T06:44:26.912Z,95.71
2023-05-13T06:46:53.349Z,96.72
2023-05-13T06:49:19.728Z,94.99
2023-05-13T06:51:46.310Z,97.01
2023-05-13T06:54:12.681Z,95.94
2023-05-13T06:56:39.078Z,96.37
2023-05-13T06:59:05.431Z,97.47
2023-05-13T07:01:31.998Z,97.88
2023-05-13T07:03:58.436Z,98.71
2023-05-13T07:06:24.840Z,98.45
2023-05-13T07:08:51.185Z,97.94
2023-05-13T07:11:17.565Z,98.84
2023-05-13T07:13:43.957Z,98.44
2023-05-13T07:16:10.367Z,97.03
2023-05-13T07:18:36.776Z,97.07
2023-05-13T07:21:03.131Z,95.98
2023-05-13T07:23:29.505Z,96.02
2023-05-13T07:25:55.902Z,94.73
2023-05-13T07:28:22.289Z,95.01
2023-05-13T07:30:48.696Z,93.13
2023-05-13T07:33:15.132Z,93.09
2023-05-13T07:35:41.483Z,93.18
2023-05-13T07:38:07.831Z,91.24
2023-05-13T07:40:34.165Z,92.06
2023-05-13T07:43:00.547Z,91.90
2023-05-13T07:45:26.894Z,92.70
2023-05-13T07:47:53.292Z,92.36
2023-05-13T07:50:19.639Z,91.23
2023-05-13T07:52:45.970Z,92.13
2023-05-13T07:55:12.356Z,92.33
2023-05-13T07:57:38.750Z,91.42
2023-05-13T08:00:05.144Z,89.72
2023-05-13T08:02:31.582Z,90.03
2023-05-13T08:04:58.116Z,92.72
2023-05-13T08:07:24.585Z,91.38
2023-05-13T08:09:50.922Z,89.81
2023-05-13T08:12:17.255Z,89.36
2023-05-13T08:14:43.633Z,89.23
2023-05-13T08:17:09.982Z,88.77
2023-05-13T08:19:36.386Z,89.37
2023-05-13T08:22:02.803Z,88.95
2023-05-13T08:24:29.155Z,89.13
2023-05-13T08:26:55.528Z,88.72
2023-05-13T08:29:21.896Z,88.20
2023-05-13T08:31:48.338Z,87.77
2023-05-13T08:34:14.724Z,88.31
2023-05-13T08:36:41.073Z,86.07
2023-05-13T08:39:07.467Z,85.04
2023-05-13T08:41:33.872Z,85.76
2023-05-13T08:44:00.272Z,84.40
2023-05-13T08:46:26.702Z,85.27
2023-05-13T08:48:53.075Z,85.83
2023-05-13T08:51:19.452Z,84.97
2023-05-13T08:53:45.801Z,83.21
2023-05-13T08:56:12.138Z,82.45
2023-05-13T08:58:38.517Z,79.87
2023-05-13T09:01:04.921Z,83.58
2023-05-13T09:03:31.274Z,79.27
2023-05-13T09:05:57.663Z,78.94
2023-05-13T09:08:24.019Z,79.53
2023-05-13T09:10:50.377Z,76.13
2023-05-13T09:13:16.730Z,80.62
2023-05-13T09:15:43.119Z,76.82
2023-05-13T09:18:09.661Z,75.86
2023-05-13T09:20:36.047Z,75.75
2023-05-13T09:23:02.445Z,78.47
2023-05-13T09:25:28.803Z,75.53
2023-05-13T09:27:55.221Z,78.02
2023-05-13T09:30:21.571Z,78.19
2023-05-13T09:32:47.970Z,80.07
2023-05-13T09:35:14.340Z,74.55
2023-05-13T09:37:40.727Z,74.98
2023-05-13T09:40:07.092Z,75.68
2023-05-13T09:42:33.430Z,76.35
2023-05-13T09:44:59.759Z,76.79
2023-05-13T09:47:26.161Z,79.45
2023-05-13T09:49:52.539Z,77.56
2023-05-13T09:52:18.888Z,75.75
2023-05-13T09:54:45.287Z,76.49
2023-05-13T09:57:11.670Z,78.03
2023-05-13T09:59:38.038Z,84.56
2023-05-13T10:02:04.368Z,79.08
2023-05-13T10:04:30.701Z,72.78
2023-05-13T10:06:57.048Z,75.08
2023-05-13T10:09:23.434Z,75.22
2023-05-13T10:11:49.822Z,76.27
2023-05-13T10:14:16.224Z,78.94
2023-05-13T10:16:42.651Z,74.65
2023-05-13T10:19:09.115Z,75.68
2023-05-13T10:21:35.604Z,67.63
2023-05-13T10:24:02.026Z,71.23
2023-05-13T10:26:28.391Z,73.12
2023-05-13T10:28:54.790Z,69.48
2023-05-13T10:31:21.206Z,72.23
2023-05-13T10:33:47.581Z,68.46
2023-05-13T10:36:13.952Z,66.97
2023-05-13T10:38:40.319Z,70.12
2023-05-13T10:41:06.656Z,71.92
2023-05-13T10:43:33.051Z,70.98
2023-05-13T10:45:59.434Z,75.15
2023-05-13T10:48:25.878Z,71.48
2023-05-13T10:50:52.454Z,71.42
2023-05-13T10:53:18.996Z,74.11
2023-05-13T10:55:45.393Z,76.53
2023-05-13T10:58:11.788Z,72.00
2023-05-13T11:00:38.184Z,73.22
2023-05-13T11:03:04.551Z,72.58
2023-05-13T11:05:30.978Z,77.02
2023-05-13T11:07:57.351Z,85.65
2023-05-13T11:10:23.744Z,73.65
2023-05-13T11:12:50.132Z,75.58
2023-05-13T11:15:16.487Z,83.08
2023-05-13T11:17:42.908Z,80.67
2023-05-13T11:20:09.285Z,80.45
2023-05-13T11:22:35.618Z,80.97
2023-05-13T11:25:02.049Z,81.93
2023-05-13T11:27:28.410Z,82.00
2023-05-13T11:29:54.756Z,80.63
2023-05-13T11:32:21.099Z,79.67
2023-05-13T11:34:47.499Z,79.09
2023-05-13T11:37:13.832Z,79.17
2023-05-13T11:39:40.222Z,77.96
2023-05-13T11:42:06.598Z,78.39
2023-05-13T11:44:32.976Z,78.79
2023-05-13T11:46:59.379Z,78.93
2023-05-13T11:49:25.736Z,77.90
2023-05-13T11:51:52.077Z,77.39
2023-05-13T11:54:18.432Z,72.96
2023-05-13T11:56:44.805Z,74.10
2023-05-13T11:59:11.165Z,65.65
2023-05-13T12:01:37.566Z,62.93
2023-05-13T12:04:03.960Z,59.39
2023-05-13T12:06:30.346Z,62.10
2023-05-13T12:08:56.760Z,60.95
2023-05-13T12:11:23.159Z,68.55
2023-05-13T12:13:49.501Z,66.49
2023-05-13T12:16:15.872Z,72.16
2023-05-13T12:18:42.371Z,74.18
2023-05-13T12:21:08.788Z,73.74
2023-05-13T12:23:35.155Z,71.30
2023-05-13T12:26:01.550Z,74.01
2023-05-13T12:28:27.913Z,75.21
2023-05-13T12:30:54.353Z,75.31
2023-05-13T12:33:20.773Z,72.20
2023-05-13T12:35:47.161Z,73.13
2023-05-13T12:38:13.506Z,73.75
2023-05-13T12:40:39.878Z,73.67
2023-05-13T12:43:06.221Z,70.88
2023-05-13T12:45:32.591Z,73.75
2023-05-13T12:47:59.021Z,70.34
2023-05-13T12:50:25.383Z,73.11
2023-05-13T12:52:51.765Z,67.85
2023-05-13T12:55:18.106Z,63.69
2023-05-13T12:57:44.485Z,59.38
2023-05-13T13:00:10.847Z,59.43
2023-05-13T13:02:37.278Z,65.60
2023-05-13T13:05:03.758Z,67.76
2023-05-13T13:07:30.149Z,72.60
2023-05-13T13:09:56.535Z,70.70
2023-05-13T13:12:22.879Z,71.24
2023-05-13T13:14:49.254Z,73.14
2023-05-13T13:17:15.639Z,74.48
2023-05-13T13:19:41.994Z,74.88
2023-05-13T13:22:08.377Z,75.45
2023-05-13T13:24:34.743Z,75.91
2023-05-13T13:27:01.094Z,75.45
2023-05-13T13:29:27.492Z,77.02
2023-05-13T13:31:53.900Z,76.66
2023-05-13T13:34:20.299Z,77.31
2023-05-13T13:36:46.646Z,79.16
2023-05-13T13:39:12.987Z,77.80
2023-05-13T13:41:39.338Z,78.55
2023-05-13T13:44:05.716Z,76.78
2023-05-13T13:46:32.138Z,76.13
2023-05-13T13:48:58.494Z,78.03
2023-05-13T13:51:24.883Z,79.48
2023-05-13T13:53:51.233Z,77.82
2023-05-13T13:56:17.622Z,81.18
2023-05-13T13:58:43.979Z,78.14
2023-05-13T14:01:10.357Z,77.77
2023-05-13T14:03:36.817Z,76.51
2023-05-13T14:06:03.296Z,80.57
2023-05-13T14:08:29.630Z,79.88
2023-05-13T14:10:55.966Z,81.00
2023-05-13T14:13:22.372Z,76.03
2023-05-13T14:15:48.801Z,77.80
2023-05-13T14:18:15.215Z,76.74
2023-05-13T14:20:41.605Z,73.65
2023-05-13T14:23:07.995Z,71.49
2023-05-13T14:25:34.392Z,79.43
2023-05-13T14:28:00.753Z,82.45
2023-05-13T14:30:27.129Z,81.97
2023-05-13T14:32:53.547Z,81.03
2023-05-13T14:35:19.949Z,82.34
2023-05-13T14:37:46.331Z,84.74
2023-05-13T14:40:12.726Z,81.10
2023-05-13T14:42:39.113Z,81.39
2023-05-13T14:45:05.459Z,82.00
2023-05-13T14:47:31.855Z,84.54
2023-05-13T14:49:58.276Z,87.49
2023-05-13T14:52:24.703Z,85.50
2023-05-13T14:54:51.106Z,86.93
2023-05-13T14:57:17.447Z,89.01
2023-05-13T14:59:43.810Z,86.82
2023-05-13T15:02:10.213Z,83.87
2023-05-13T15:04:36.705Z,85.15
2023-05-13T15:07:03.103Z,87.34
2023-05-13T15:09:29.461Z,87.06
2023-05-13T15:11:55.858Z,88.31
2023-05-13T15:14:22.213Z,90.24
2023-05-13T15:16:48.591Z,92.06
2023-05-13T15:19:15.064Z,90.59
2023-05-13T15:21:41.466Z,100.00
2023-05-13T15:24:07.858Z,100.00
2023-05-13T15:26:34.209Z,100.00
2023-05-13T15:29:00.591Z,100.00
2023-05-13T15:31:26.993Z,100.00
2023-05-13T15:33:53.620Z,100.00
2023-05-13T15:36:20.039Z,100.00
2023-05-13T15:38:46.471Z,100.00
2023-05-13T15:41:12.868Z,100.00
2023-05-13T15:43:39.268Z,100.00
2023-05-13T15:46:05.774Z,100.00
2023-05-13T15:48:32.199Z,100.00
2023-05-13T15:50:58.554Z,100.00
2023-05-13T15:53:24.899Z,100.00
2023-05-13T15:55:51.300Z,100.00
2023-05-13T15:58:17.685Z,100.00
2023-05-13T16:00:44.081Z,100.00
2023-05-13T16:03:10.469Z,100.00
2023-05-13T16:05:36.822Z,100.00
2023-05-13T16:08:03.168Z,100.00
2023-05-13T16:10:29.506Z,100.00
2023-05-13T16:12:55.900Z,100.00
2023-05-13T16:15:22.264Z,100.00
2023-05-13T16:17:48.609Z,100.00
2023-05-13T16:20:15.022Z,100.00
2023-05-13T16:22:41.418Z,100.00
2023-05-13T16:25:07.782Z,100.00
2023-05-13T16:27:34.164Z,100.00
2023-05-13T16:30:00.613Z,100.00
2023-05-13T16:32:27.051Z,100.00
2023-05-13T16:34:53.561Z,100.00
2023-05-13T16:37:19.910Z,100.00
2023-05-13T16:39:46.263Z,100.00
2023-05-13T16:42:12.642Z,100.00
2023-05-13T16:44:39.011Z,100.00
2023-05-13T16:47:05.389Z,100.00
2023-05-13T16:49:31.754Z,100.00
2023-05-13T16:51:58.090Z,100.00
2023-05-13T16:54:24.463Z,100.00
2023-05-13T16:56:50.826Z,100.00
2023-05-13T16:59:17.204Z,100.00
2023-05-13T17:01:43.975Z,100.00
2023-05-13T17:04:10.417Z,100.00
2023-05-13T17:06:36.759Z,100.00
2023-05-13T17:09:03.111Z,100.00
2023-05-13T17:11:29.471Z,100.00
2023-05-13T17:13:55.857Z,100.00
2023-05-13T17:16:22.248Z,100.00
2023-05-13T17:18:48.670Z,100.00
2023-05-13T17:21:15.045Z,100.00
2023-05-13T17:23:41.396Z,100.00
2023-05-13T17:26:07.816Z,100.00
2023-05-13T17:28:34.217Z,100.00
2023-05-13T17:31:00.698Z,100.00
2023-05-13T17:33:27.219Z,100.00
2023-05-13T17:35:53.571Z,100.00
2023-05-13T17:38:19.944Z,100.00
2023-05-13T17:40:46.300Z,100.00
2023-05-13T17:43:12.643Z,100.00
2023-05-13T17:45:39.108Z,100.00
2023-05-13T17:48:05.616Z,100.00
2023-05-13T17:50:32.078Z,100.00
2023-05-13T17:52:58.505Z,100.00
2023-05-13T17:55:24.854Z,100.00
2023-05-13T17:57:51.190Z,100.00
2023-05-13T18:00:17.572Z,100.00
2023-05-13T18:02:43.979Z,100.00
2023-05-13T18:05:10.411Z,100.00
2023-05-13T18:07:36.800Z,100.00
2023-05-13T18:10:03.207Z,100.00
2023-05-13T18:12:29.624Z,100.00
2023-05-13T18:14:55.998Z,100.00
2023-05-13T18:17:22.375Z,100.00
2023-05-13T18:19:48.771Z,100.00
2023-05-13T18:22:15.159Z,100.00
2023-05-13T18:24:41.526Z,100.00
2023-05-13T18:27:07.915Z,100.00
2023-05-13T18:29:34.248Z,100.00
2023-05-13T18:32:00.671Z,100.00
2023-05-13T18:34:27.053Z,100.00
2023-05-13T18:36:53.446Z,100.00
2023-05-13T18:39:19.864Z,100.00
2023-05-13T18:41:46.251Z,100.00
2023-05-13T18:44:12.646Z,100.00
2023-05-13T18:46:39.034Z,100.00
2023-05-13T18:49:05.445Z,100.00
2023-05-13T18:51:31.826Z,100.00
2023-05-13T18:53:58.240Z,100.00
2023-05-13T18:56:24.654Z,100.00
2023-05-13T18:58:51.006Z,100.00
2023-05-13T19:01:17.485Z,100.00
2023-05-13T19:03:44.138Z,100.00
2023-05-13T19:06:10.584Z,100.00
2023-05-13T19:08:36.969Z,100.00
2023-05-13T19:11:03.317Z,100.00
2023-05-13T19:13:39.777Z,100.00
2023-05-13T19:16:12.452Z,100.00
2023-05-13T19:18:38.854Z,100.00
2023-05-13T19:21:05.267Z,100.00
2023-05-13T19:23:31.653Z,100.00
2023-05-13T19:25:58.053Z,100.00
2023-05-13T19:28:24.930Z,100.00
2023-05-13T19:30:51.316Z,100.00
2023-05-13T19:33:17.742Z,100.00
2023-05-13T19:35:44.098Z,100.00
2023-05-13T19:38:10.456Z,100.00
2023-05-13T19:40:36.847Z,100.00
2023-05-13T19:43:03.238Z,100.00
2023-05-13T19:45:29.632Z,100.00
2023-05-13T19:47:56.231Z,100.00
2023-05-13T19:50:22.900Z,100.00
2023-05-13T19:52:49.512Z,100.00
2023-05-13T19:55:15.872Z,100.00
2023-05-13T19:57:42.247Z,100.00
2023-05-13T20:00:08.605Z,100.00
2023-05-13T20:02:35.111Z,100.00
2023-05-13T20:05:01.612Z,100.00
2023-05-13T20:07:28.007Z,100.00
2023-05-13T20:09:54.437Z,100.00
2023-05-13T20:12:20.814Z,100.00
2023-05-13T20:14:47.188Z,100.00
2023-05-13T20:17:13.606Z,100.00
2023-05-13T20:19:40.026Z,100.00
2023-05-13T20:22:06.398Z,100.00
2023-05-13T20:24:32.763Z,100.00
2023-05-13T20:26:59.150Z,100.00
2023-05-13T20:29:25.515Z,100.00
2023-05-13T20:31:51.926Z,100.00
2023-05-13T20:34:18.298Z,100.00
2023-05-13T20:36:44.665Z,100.00
2023-05-13T20:39:11.068Z,100.00
2023-05-13T20:41:37.469Z,100.00
2023-05-13T20:44:03.877Z,100.00
2023-05-13T20:46:30.404Z,100.00
2023-05-13T20:48:56.995Z,100.00
2023-05-13T20:51:23.367Z,100.00
2023-05-13T20:53:49.788Z,100.00
2023-05-13T20:56:16.181Z,100.00
2023-05-13T20:58:42.553Z,100.00
2023-05-13T21:01:08.986Z,100.00
2023-05-13T21:03:35.633Z,100.00
2023-05-13T21:06:02.056Z,100.00
2023-05-13T21:08:28.470Z,100.00
2023-05-13T21:10:54.913Z,100.00
2023-05-13T21:13:21.275Z,100.00
2023-05-13T21:15:47.642Z,100.00
2023-05-13T21:18:14.062Z,100.00
2023-05-13T21:20:40.482Z,100.00
2023-05-13T21:23:06.833Z,100.00
2023-05-13T21:25:33.154Z,100.00
2023-05-13T21:27:59.494Z,100.00
2023-05-13T21:30:25.936Z,100.00
2023-05-13T21:32:52.465Z,100.00
2023-05-13T21:35:18.835Z,100.00
2023-05-13T21:37:47.205Z,100.00
2023-05-13T21:40:13.959Z,100.00
2023-05-13T21:42:40.311Z,100.00
2023-05-13T21:45:06.731Z,100.00
2023-05-13T21:47:33.170Z,100.00
2023-05-13T21:49:59.536Z,100.00
2023-05-13T21:52:25.896Z,100.00
2023-05-13T21:54:52.277Z,100.00
2023-05-13T21:57:18.627Z,100.00
2023-05-13T21:59:45.002Z,100.00
2023-05-13T22:02:11.396Z,100.00
2023-05-13T22:04:37.830Z,100.00
2023-05-13T22:07:04.209Z,100.00
2023-05-13T22:09:30.558Z,100.00
2023-05-13T22:11:56.905Z,100.00
2023-05-13T22:14:23.296Z,100.00
2023-05-13T22:17:00.886Z,100.00
2023-05-13T22:19:34.657Z,100.00
2023-05-13T22:22:01.075Z,100.00
2023-05-13T22:24:27.512Z,100.00
2023-05-13T22:26:53.882Z,100.00
2023-05-13T22:29:20.286Z,100.00
2023-05-13T22:31:46.695Z,100.00
2023-05-13T22:34:13.086Z,100.00
2023-05-13T22:36:41.148Z,100.00
2023-05-13T22:39:08.865Z,100.00
2023-05-13T22:41:35.256Z,100.00
2023-05-13T22:44:01.610Z,100.00
2023-05-13T22:46:28.039Z,100.00
2023-05-13T22:48:54.438Z,100.00
2023-05-13T22:51:20.799Z,100.00
2023-05-13T22:53:47.190Z,100.00
2023-05-13T22:56:13.554Z,100.00
2023-05-13T22:58:39.898Z,100.00
2023-05-13T23:01:06.244Z,100.00
2023-05-13T23:03:32.608Z,100.00
2023-05-13T23:05:59.017Z,100.00
2023-05-13T23:08:25.405Z,100.00
2023-05-13T23:10:51.754Z,100.00
2023-05-13T23:13:18.124Z,100.00
2023-05-13T23:15:44.547Z,100.00
2023-05-13T23:18:11.034Z,100.00
2023-05-13T23:20:37.408Z,100.00
2023-05-13T23:23:03.757Z,100.00
2023-05-13T23:25:30.136Z,100.00
2023-05-13T23:27:56.529Z,100.00
2023-05-13T23:30:23.226Z,100.00
2023-05-13T23:32:49.728Z,100.00
2023-05-13T23:35:16.128Z,100.00
2023-05-13T23:37:42.469Z,100.00
2023-05-13T23:40:08.838Z,100.00
2023-05-13T23:42:35.181Z,100.00
2023-05-13T23:45:01.548Z,100.00
2023-05-13T23:47:27.962Z,100.00
2023-05-13T23:49:54.405Z,100.00
2023-05-13T23:52:21.065Z,100.00
2023-05-13T23:54:47.521Z,100.00
2023-05-13T23:57:13.913Z,100.00
2023-05-13T23:59:40.307Z,100.00
